sensor_id;sensor_type;location;lat;lon;timestamp;P1;durP1;ratioP1;P2;durP2;ratioP2
30571;SDS011;17348;50.948;10.696;2023-02-19T00:00:53;2.42;;;1.02;;
30571;SDS011;17348;50.948;10.696;2023-02-19T00:03:56;1.55;;;1.10;;
30571;SDS011;17348;50.948;10.696;2023-02-19T00:07:00;2.65;;;1.48;;
30571;SDS011;17348;50.948;10.696;2023-02-19T00:10:02;1.83;;;1.38;;
30571;SDS011;17348;50.948;10.696;2023-02-19T00:13:05;2.58;;;1.45;;
30571;SDS011;17348;50.948;10.696;2023-02-19T00:16:09;1.83;;;1.35;;
30571;SDS011;17348;50.948;10.696;2023-02-19T00:19:15;1.92;;;1.50;;
30571;SDS011;17348;50.948;10.696;2023-02-19T00:22:19;2.17;;;1.63;;
30571;SDS011;17348;50.948;10.696;2023-02-19T00:25:21;2.72;;;1.65;;
30571;SDS011;17348;50.948;10.696;2023-02-19T00:28:23;1.85;;;1.27;;
30571;SDS011;17348;50.948;10.696;2023-02-19T00:31:28;2.13;;;1.15;;
30571;SDS011;17348;50.948;10.696;2023-02-19T00:34:30;4.70;;;1.75;;
30571;SDS011;17348;50.948;10.696;2023-02-19T00:37:33;1.83;;;1.27;;
30571;SDS011;17348;50.948;10.696;2023-02-19T00:40:35;2.92;;;1.50;;
30571;SDS011;17348;50.948;10.696;2023-02-19T00:43:39;1.40;;;1.10;;
30571;SDS011;17348;50.948;10.696;2023-02-19T00:46:43;2.85;;;1.40;;
30571;SDS011;17348;50.948;10.696;2023-02-19T00:49:46;0.70;;;0.70;;
30571;SDS011;17348;50.948;10.696;2023-02-19T00:52:49;1.58;;;1.20;;
30571;SDS011;17348;50.948;10.696;2023-02-19T00:55:51;1.00;;;0.82;;
30571;SDS011;17348;50.948;10.696;2023-02-19T00:58:53;2.53;;;0.90;;
30571;SDS011;17348;50.948;10.696;2023-02-19T01:01:57;0.82;;;0.70;;
30571;SDS011;17348;50.948;10.696;2023-02-19T01:04:59;1.40;;;0.90;;
30571;SDS011;17348;50.948;10.696;2023-02-19T01:08:02;1.50;;;1.05;;
30571;SDS011;17348;50.948;10.696;2023-02-19T01:11:05;0.77;;;0.70;;
30571;SDS011;17348;50.948;10.696;2023-02-19T01:14:08;0.80;;;0.73;;
30571;SDS011;17348;50.948;10.696;2023-02-19T01:17:12;1.20;;;1.10;;
30571;SDS011;17348;50.948;10.696;2023-02-19T01:20:14;1.17;;;0.80;;
30571;SDS011;17348;50.948;10.696;2023-02-19T01:23:17;1.23;;;0.88;;
30571;SDS011;17348;50.948;10.696;2023-02-19T01:26:19;1.85;;;1.17;;
30571;SDS011;17348;50.948;10.696;2023-02-19T01:29:23;1.58;;;1.20;;
30571;SDS011;17348;50.948;10.696;2023-02-19T01:32:27;1.70;;;0.70;;
30571;SDS011;17348;50.948;10.696;2023-02-19T01:35:29;2.88;;;1.27;;
30571;SDS011;17348;50.948;10.696;2023-02-19T01:38:32;1.58;;;1.27;;
30571;SDS011;17348;50.948;10.696;2023-02-19T01:41:35;1.15;;;1.00;;
30571;SDS011;17348;50.948;10.696;2023-02-19T01:48:23;2.58;;;1.70;;
30571;SDS011;17348;50.948;10.696;2023-02-19T01:51:28;2.33;;;1.60;;
30571;SDS011;17348;50.948;10.696;2023-02-19T01:54:33;1.92;;;1.65;;
30571;SDS011;17348;50.948;10.696;2023-02-19T01:57:42;2.65;;;1.45;;
30571;SDS011;17348;50.948;10.696;2023-02-19T02:00:47;1.83;;;1.50;;
30571;SDS011;17348;50.948;10.696;2023-02-19T02:03:52;2.20;;;1.65;;
30571;SDS011;17348;50.948;10.696;2023-02-19T02:06:55;2.42;;;1.73;;
30571;SDS011;17348;50.948;10.696;2023-02-19T02:10:00;2.25;;;1.55;;
30571;SDS011;17348;50.948;10.696;2023-02-19T02:13:20;2.67;;;1.10;;
30571;SDS011;17348;50.948;10.696;2023-02-19T02:16:23;2.33;;;1.35;;
30571;SDS011;17348;50.948;10.696;2023-02-19T02:19:36;1.83;;;1.20;;
30571;SDS011;17348;50.948;10.696;2023-02-19T02:22:58;1.65;;;1.25;;
30571;SDS011;17348;50.948;10.696;2023-02-19T02:26:08;3.17;;;1.70;;
30571;SDS011;17348;50.948;10.696;2023-02-19T02:33:10;1.27;;;1.17;;
30571;SDS011;17348;50.948;10.696;2023-02-19T02:36:19;5.22;;;1.13;;
30571;SDS011;17348;50.948;10.696;2023-02-19T02:39:24;2.30;;;1.33;;
30571;SDS011;17348;50.948;10.696;2023-02-19T02:42:28;1.23;;;1.05;;
30571;SDS011;17348;50.948;10.696;2023-02-19T02:45:32;2.03;;;1.52;;
30571;SDS011;17348;50.948;10.696;2023-02-19T02:48:38;1.65;;;1.23;;
30571;SDS011;17348;50.948;10.696;2023-02-19T02:51:44;1.33;;;1.10;;
30571;SDS011;17348;50.948;10.696;2023-02-19T02:54:51;0.98;;;0.63;;
30571;SDS011;17348;50.948;10.696;2023-02-19T02:58:04;0.80;;;0.70;;
30571;SDS011;17348;50.948;10.696;2023-02-19T03:01:09;1.20;;;0.90;;
30571;SDS011;17348;50.948;10.696;2023-02-19T03:04:34;1.48;;;0.80;;
30571;SDS011;17348;50.948;10.696;2023-02-19T03:07:59;2.88;;;0.88;;
30571;SDS011;17348;50.948;10.696;2023-02-19T03:11:08;1.00;;;0.73;;
30571;SDS011;17348;50.948;10.696;2023-02-19T03:14:30;1.00;;;0.73;;
30571;SDS011;17348;50.948;10.696;2023-02-19T03:17:55;1.58;;;1.00;;
30571;SDS011;17348;50.948;10.696;2023-02-19T03:21:19;0.77;;;0.70;;
30571;SDS011;17348;50.948;10.696;2023-02-19T03:24:25;0.82;;;0.70;;
30571;SDS011;17348;50.948;10.696;2023-02-19T03:27:49;2.92;;;0.80;;
30571;SDS011;17348;50.948;10.696;2023-02-19T03:30:52;0.85;;;0.70;;
30571;SDS011;17348;50.948;10.696;2023-02-19T03:33:58;2.67;;;1.00;;
30571;SDS011;17348;50.948;10.696;2023-02-19T03:37:05;1.33;;;1.00;;
30571;SDS011;17348;50.948;10.696;2023-02-19T03:40:11;1.88;;;1.02;;
30571;SDS011;17348;50.948;10.696;2023-02-19T03:43:15;1.10;;;0.90;;
30571;SDS011;17348;50.948;10.696;2023-02-19T03:46:22;1.65;;;1.13;;
30571;SDS011;17348;50.948;10.696;2023-02-19T03:49:33;1.75;;;0.90;;
30571;SDS011;17348;50.948;10.696;2023-02-19T03:52:44;1.63;;;1.00;;
30571;SDS011;17348;50.948;10.696;2023-02-19T03:55:56;1.52;;;1.23;;
30571;SDS011;17348;50.948;10.696;2023-02-19T03:59:07;1.50;;;1.08;;
30571;SDS011;17348;50.948;10.696;2023-02-19T04:02:14;1.30;;;0.80;;
30571;SDS011;17348;50.948;10.696;2023-02-19T04:05:26;1.35;;;1.00;;
30571;SDS011;17348;50.948;10.696;2023-02-19T04:08:32;2.20;;;1.20;;
30571;SDS011;17348;50.948;10.696;2023-02-19T04:11:37;2.10;;;1.20;;
30571;SDS011;17348;50.948;10.696;2023-02-19T04:14:40;1.88;;;1.27;;
30571;SDS011;17348;50.948;10.696;2023-02-19T04:17:47;2.10;;;1.30;;
30571;SDS011;17348;50.948;10.696;2023-02-19T04:20:57;1.17;;;0.80;;
30571;SDS011;17348;50.948;10.696;2023-02-19T04:24:05;1.13;;;0.82;;
30571;SDS011;17348;50.948;10.696;2023-02-19T04:27:11;2.38;;;1.13;;
30571;SDS011;17348;50.948;10.696;2023-02-19T04:30:14;1.73;;;1.13;;
30571;SDS011;17348;50.948;10.696;2023-02-19T04:33:16;0.80;;;0.70;;
30571;SDS011;17348;50.948;10.696;2023-02-19T04:36:20;1.40;;;0.95;;
30571;SDS011;17348;50.948;10.696;2023-02-19T04:39:22;0.43;;;0.43;;
30571;SDS011;17348;50.948;10.696;2023-02-19T04:42:27;0.90;;;0.50;;
30571;SDS011;17348;50.948;10.696;2023-02-19T04:45:29;0.60;;;0.30;;
30571;SDS011;17348;50.948;10.696;2023-02-19T04:48:32;0.32;;;0.30;;
30571;SDS011;17348;50.948;10.696;2023-02-19T04:51:35;1.10;;;0.68;;
30571;SDS011;17348;50.948;10.696;2023-02-19T04:54:38;1.23;;;0.70;;
30571;SDS011;17348;50.948;10.696;2023-02-19T04:57:41;0.90;;;0.65;;
30571;SDS011;17348;50.948;10.696;2023-02-19T05:00:43;1.45;;;1.02;;
30571;SDS011;17348;50.948;10.696;2023-02-19T05:03:45;0.95;;;0.70;;
30571;SDS011;17348;50.948;10.696;2023-02-19T05:06:49;2.22;;;1.00;;
30571;SDS011;17348;50.948;10.696;2023-02-19T05:09:51;2.92;;;1.50;;
30571;SDS011;17348;50.948;10.696;2023-02-19T05:12:54;3.10;;;1.73;;
30571;SDS011;17348;50.948;10.696;2023-02-19T05:15:56;3.67;;;1.63;;
30571;SDS011;17348;50.948;10.696;2023-02-19T05:19:00;7.32;;;1.83;;
30571;SDS011;17348;50.948;10.696;2023-02-19T05:22:03;5.25;;;1.75;;
30571;SDS011;17348;50.948;10.696;2023-02-19T05:25:06;4.10;;;2.13;;
30571;SDS011;17348;50.948;10.696;2023-02-19T05:28:08;2.92;;;1.55;;
30571;SDS011;17348;50.948;10.696;2023-02-19T05:31:20;5.65;;;2.30;;
30571;SDS011;17348;50.948;10.696;2023-02-19T05:34:22;3.58;;;2.10;;
30571;SDS011;17348;50.948;10.696;2023-02-19T05:37:26;3.25;;;1.75;;
30571;SDS011;17348;50.948;10.696;2023-02-19T05:40:28;2.30;;;1.50;;
30571;SDS011;17348;50.948;10.696;2023-02-19T05:43:31;1.45;;;1.15;;
30571;SDS011;17348;50.948;10.696;2023-02-19T05:46:33;3.22;;;1.40;;
30571;SDS011;17348;50.948;10.696;2023-02-19T05:49:35;2.70;;;1.08;;
30571;SDS011;17348;50.948;10.696;2023-02-19T05:52:39;3.63;;;0.77;;
30571;SDS011;17348;50.948;10.696;2023-02-19T05:55:41;3.40;;;0.70;;
30571;SDS011;17348;50.948;10.696;2023-02-19T05:58:43;1.40;;;0.90;;
30571;SDS011;17348;50.948;10.696;2023-02-19T06:01:46;1.20;;;0.82;;
30571;SDS011;17348;50.948;10.696;2023-02-19T06:04:48;1.08;;;0.80;;
30571;SDS011;17348;50.948;10.696;2023-02-19T06:07:52;1.67;;;0.77;;
30571;SDS011;17348;50.948;10.696;2023-02-19T06:10:54;1.67;;;0.85;;
30571;SDS011;17348;50.948;10.696;2023-02-19T06:13:57;1.23;;;0.70;;
30571;SDS011;17348;50.948;10.696;2023-02-19T06:16:59;1.77;;;0.60;;
30571;SDS011;17348;50.948;10.696;2023-02-19T06:20:01;0.52;;;0.40;;
30571;SDS011;17348;50.948;10.696;2023-02-19T06:23:05;1.20;;;0.73;;
30571;SDS011;17348;50.948;10.696;2023-02-19T06:26:08;1.17;;;0.60;;
30571;SDS011;17348;50.948;10.696;2023-02-19T06:29:13;1.00;;;0.70;;
30571;SDS011;17348;50.948;10.696;2023-02-19T06:32:16;0.98;;;0.63;;
30571;SDS011;17348;50.948;10.696;2023-02-19T06:35:19;0.95;;;0.52;;
30571;SDS011;17348;50.948;10.696;2023-02-19T06:38:23;0.90;;;0.65;;
30571;SDS011;17348;50.948;10.696;2023-02-19T06:41:25;0.50;;;0.40;;
30571;SDS011;17348;50.948;10.696;2023-02-19T06:44:27;1.30;;;0.73;;
30571;SDS011;17348;50.948;10.696;2023-02-19T06:47:30;2.20;;;0.77;;
30571;SDS011;17348;50.948;10.696;2023-02-19T06:50:33;1.20;;;0.65;;
30571;SDS011;17348;50.948;10.696;2023-02-19T06:53:45;1.13;;;0.67;;
30571;SDS011;17348;50.948;10.696;2023-02-19T06:56:51;1.15;;;0.52;;
30571;SDS011;17348;50.948;10.696;2023-02-19T06:59:53;1.55;;;1.13;;
30571;SDS011;17348;50.948;10.696;2023-02-19T07:02:56;1.63;;;0.70;;
30571;SDS011;17348;50.948;10.696;2023-02-19T07:05:58;1.70;;;0.93;;
30571;SDS011;17348;50.948;10.696;2023-02-19T07:09:03;2.92;;;1.25;;
30571;SDS011;17348;50.948;10.696;2023-02-19T07:12:06;2.72;;;1.20;;
30571;SDS011;17348;50.948;10.696;2023-02-19T07:15:09;3.10;;;1.50;;
30571;SDS011;17348;50.948;10.696;2023-02-19T07:18:11;2.72;;;1.40;;
30571;SDS011;17348;50.948;10.696;2023-02-19T07:21:14;2.40;;;1.53;;
30571;SDS011;17348;50.948;10.696;2023-02-19T07:24:18;4.50;;;1.27;;
30571;SDS011;17348;50.948;10.696;2023-02-19T07:27:21;4.40;;;1.23;;
30571;SDS011;17348;50.948;10.696;2023-02-19T07:30:24;3.97;;;2.00;;
30571;SDS011;17348;50.948;10.696;2023-02-19T07:33:26;5.60;;;2.72;;
30571;SDS011;17348;50.948;10.696;2023-02-19T07:36:29;8.45;;;2.67;;
30571;SDS011;17348;50.948;10.696;2023-02-19T07:39:33;16.50;;;8.38;;
30571;SDS011;17348;50.948;10.696;2023-02-19T07:42:35;16.15;;;7.47;;
30571;SDS011;17348;50.948;10.696;2023-02-19T07:45:37;5.20;;;2.38;;
30571;SDS011;17348;50.948;10.696;2023-02-19T07:48:41;24.45;;;14.57;;
30571;SDS011;17348;50.948;10.696;2023-02-19T07:51:44;4.60;;;2.47;;
30571;SDS011;17348;50.948;10.696;2023-02-19T07:54:47;5.72;;;2.22;;
30571;SDS011;17348;50.948;10.696;2023-02-19T07:57:50;3.67;;;2.03;;
30571;SDS011;17348;50.948;10.696;2023-02-19T08:00:52;3.65;;;2.00;;
30571;SDS011;17348;50.948;10.696;2023-02-19T08:03:54;7.55;;;2.03;;
30571;SDS011;17348;50.948;10.696;2023-02-19T08:06:58;4.13;;;2.30;;
30571;SDS011;17348;50.948;10.696;2023-02-19T08:10:02;6.78;;;3.15;;
30571;SDS011;17348;50.948;10.696;2023-02-19T08:13:24;21.83;;;7.45;;
30571;SDS011;17348;50.948;10.696;2023-02-19T08:16:28;25.65;;;7.93;;
30571;SDS011;17348;50.948;10.696;2023-02-19T08:19:30;10.73;;;4.32;;
30571;SDS011;17348;50.948;10.696;2023-02-19T08:22:32;16.00;;;7.57;;
30571;SDS011;17348;50.948;10.696;2023-02-19T08:25:36;6.85;;;3.40;;
30571;SDS011;17348;50.948;10.696;2023-02-19T08:28:39;7.35;;;3.17;;
30571;SDS011;17348;50.948;10.696;2023-02-19T08:31:42;14.32;;;4.68;;
30571;SDS011;17348;50.948;10.696;2023-02-19T08:34:44;12.70;;;5.32;;
30571;SDS011;17348;50.948;10.696;2023-02-19T08:37:48;13.90;;;6.10;;
30571;SDS011;17348;50.948;10.696;2023-02-19T08:40:52;3.60;;;2.72;;
30571;SDS011;17348;50.948;10.696;2023-02-19T08:43:55;2.30;;;1.80;;
30571;SDS011;17348;50.948;10.696;2023-02-19T08:46:57;2.67;;;1.85;;
30571;SDS011;17348;50.948;10.696;2023-02-19T08:50:00;1.70;;;0.95;;
30571;SDS011;17348;50.948;10.696;2023-02-19T08:53:04;1.90;;;1.42;;
30571;SDS011;17348;50.948;10.696;2023-02-19T08:56:10;2.35;;;1.27;;
30571;SDS011;17348;50.948;10.696;2023-02-19T08:59:13;4.32;;;1.65;;
30571;SDS011;17348;50.948;10.696;2023-02-19T09:02:16;1.85;;;1.10;;
30571;SDS011;17348;50.948;10.696;2023-02-19T09:05:19;3.25;;;1.90;;
30571;SDS011;17348;50.948;10.696;2023-02-19T09:08:21;3.08;;;1.88;;
30571;SDS011;17348;50.948;10.696;2023-02-19T09:11:25;3.85;;;2.00;;
30571;SDS011;17348;50.948;10.696;2023-02-19T09:14:30;6.10;;;2.00;;
30571;SDS011;17348;50.948;10.696;2023-02-19T09:17:34;3.88;;;2.20;;
30571;SDS011;17348;50.948;10.696;2023-02-19T09:20:36;4.47;;;1.20;;
30571;SDS011;17348;50.948;10.696;2023-02-19T09:23:38;2.60;;;1.65;;
30571;SDS011;17348;50.948;10.696;2023-02-19T09:26:42;3.95;;;1.30;;
30571;SDS011;17348;50.948;10.696;2023-02-19T09:29:45;1.65;;;1.20;;
30571;SDS011;17348;50.948;10.696;2023-02-19T09:32:47;2.17;;;1.35;;
30571;SDS011;17348;50.948;10.696;2023-02-19T09:35:50;3.88;;;1.23;;
30571;SDS011;17348;50.948;10.696;2023-02-19T09:38:52;4.68;;;0.90;;
30571;SDS011;17348;50.948;10.696;2023-02-19T09:41:57;3.22;;;1.50;;
30571;SDS011;17348;50.948;10.696;2023-02-19T09:45:05;1.00;;;0.80;;
30571;SDS011;17348;50.948;10.696;2023-02-19T09:48:08;0.88;;;0.52;;
30571;SDS011;17348;50.948;10.696;2023-02-19T09:51:12;2.28;;;0.60;;
30571;SDS011;17348;50.948;10.696;2023-02-19T09:54:17;0.30;;;0.30;;
30571;SDS011;17348;50.948;10.696;2023-02-19T09:57:24;0.40;;;0.10;;
30571;SDS011;17348;50.948;10.696;2023-02-19T10:00:29;1.33;;;0.25;;
30571;SDS011;17348;50.948;10.696;2023-02-19T10:03:35;1.67;;;0.63;;
30571;SDS011;17348;50.948;10.696;2023-02-19T10:06:40;0.50;;;0.50;;
30571;SDS011;17348;50.948;10.696;2023-02-19T10:09:44;0.38;;;0.25;;
30571;SDS011;17348;50.948;10.696;2023-02-19T10:12:51;0.73;;;0.17;;
30571;SDS011;17348;50.948;10.696;2023-02-19T10:15:57;0.67;;;0.40;;
30571;SDS011;17348;50.948;10.696;2023-02-19T10:19:01;0.37;;;0.23;;
30571;SDS011;17348;50.948;10.696;2023-02-19T10:22:04;3.80;;;0.57;;
30571;SDS011;17348;50.948;10.696;2023-02-19T10:25:11;4.10;;;1.80;;
30571;SDS011;17348;50.948;10.696;2023-02-19T10:28:16;4.90;;;0.63;;
30571;SDS011;17348;50.948;10.696;2023-02-19T10:31:22;3.10;;;0.50;;
30571;SDS011;17348;50.948;10.696;2023-02-19T10:34:25;4.43;;;0.80;;
30571;SDS011;17348;50.948;10.696;2023-02-19T10:37:27;1.17;;;0.80;;
30571;SDS011;17348;50.948;10.696;2023-02-19T10:40:30;2.73;;;0.70;;
30571;SDS011;17348;50.948;10.696;2023-02-19T10:43:35;0.90;;;0.60;;
30571;SDS011;17348;50.948;10.696;2023-02-19T10:46:42;2.97;;;0.80;;
30571;SDS011;17348;50.948;10.696;2023-02-19T10:49:46;1.50;;;0.80;;
30571;SDS011;17348;50.948;10.696;2023-02-19T10:52:51;3.90;;;1.00;;
30571;SDS011;17348;50.948;10.696;2023-02-19T10:56:04;1.03;;;0.43;;
30571;SDS011;17348;50.948;10.696;2023-02-19T10:59:20;0.93;;;0.30;;
30571;SDS011;17348;50.948;10.696;2023-02-19T11:02:25;0.60;;;0.37;;
30571;SDS011;17348;50.948;10.696;2023-02-19T11:05:29;1.20;;;0.40;;
30571;SDS011;17348;50.948;10.696;2023-02-19T11:08:32;1.10;;;0.70;;
30571;SDS011;17348;50.948;10.696;2023-02-19T11:11:49;1.60;;;0.33;;
30571;SDS011;17348;50.948;10.696;2023-02-19T11:14:55;1.90;;;0.50;;
30571;SDS011;17348;50.948;10.696;2023-02-19T11:18:19;0.77;;;0.60;;
30571;SDS011;17348;50.948;10.696;2023-02-19T11:21:24;21.70;;;4.33;;
30571;SDS011;17348;50.948;10.696;2023-02-19T11:24:32;8.87;;;2.10;;
30571;SDS011;17348;50.948;10.696;2023-02-19T11:27:37;5.00;;;0.83;;
30571;SDS011;17348;50.948;10.696;2023-02-19T11:30:56;1.13;;;0.73;;
30571;SDS011;17348;50.948;10.696;2023-02-19T11:34:25;3.23;;;0.70;;
30571;SDS011;17348;50.948;10.696;2023-02-19T11:37:34;2.57;;;0.67;;
30571;SDS011;17348;50.948;10.696;2023-02-19T11:40:38;2.23;;;0.80;;
30571;SDS011;17348;50.948;10.696;2023-02-19T11:43:50;1.15;;;0.57;;
30571;SDS011;17348;50.948;10.696;2023-02-19T11:47:04;1.73;;;0.80;;
30571;SDS011;17348;50.948;10.696;2023-02-19T11:50:29;1.08;;;0.60;;
30571;SDS011;17348;50.948;10.696;2023-02-19T11:53:45;2.25;;;1.00;;
30571;SDS011;17348;50.948;10.696;2023-02-19T11:56:54;0.70;;;0.40;;
30571;SDS011;17348;50.948;10.696;2023-02-19T12:00:13;1.30;;;1.00;;
30571;SDS011;17348;50.948;10.696;2023-02-19T12:06:57;0.57;;;0.57;;
30571;SDS011;17348;50.948;10.696;2023-02-19T12:10:08;1.27;;;1.00;;
30571;SDS011;17348;50.948;10.696;2023-02-19T12:13:17;1.15;;;0.90;;
30571;SDS011;17348;50.948;10.696;2023-02-19T12:16:28;1.40;;;0.80;;
30571;SDS011;17348;50.948;10.696;2023-02-19T12:19:41;1.95;;;0.93;;
30571;SDS011;17348;50.948;10.696;2023-02-19T12:22:56;0.88;;;0.70;;
30571;SDS011;17348;50.948;10.696;2023-02-19T12:26:19;1.15;;;0.47;;
30571;SDS011;17348;50.948;10.696;2023-02-19T12:29:29;1.02;;;0.60;;
30571;SDS011;17348;50.948;10.696;2023-02-19T12:32:44;5.77;;;1.50;;
30571;SDS011;17348;50.948;10.696;2023-02-19T12:36:07;4.35;;;1.75;;
30571;SDS011;17348;50.948;10.696;2023-02-19T12:39:20;2.87;;;1.33;;
30571;SDS011;17348;50.948;10.696;2023-02-19T12:42:38;3.37;;;0.73;;
30571;SDS011;17348;50.948;10.696;2023-02-19T12:45:51;2.33;;;0.60;;
30571;SDS011;17348;50.948;10.696;2023-02-19T12:48:58;1.13;;;0.50;;
30571;SDS011;17348;50.948;10.696;2023-02-19T12:52:08;3.97;;;0.60;;
30571;SDS011;17348;50.948;10.696;2023-02-19T12:55:18;0.70;;;0.50;;
30571;SDS011;17348;50.948;10.696;2023-02-19T12:58:25;1.70;;;0.80;;
30571;SDS011;17348;50.948;10.696;2023-02-19T13:01:32;3.17;;;0.87;;
30571;SDS011;17348;50.948;10.696;2023-02-19T13:04:46;5.65;;;1.23;;
30571;SDS011;17348;50.948;10.696;2023-02-19T13:07:58;1.27;;;0.50;;
30571;SDS011;17348;50.948;10.696;2023-02-19T13:11:07;1.33;;;0.70;;
30571;SDS011;17348;50.948;10.696;2023-02-19T13:14:16;1.37;;;0.97;;
30571;SDS011;17348;50.948;10.696;2023-02-19T13:17:27;13.48;;;6.25;;
30571;SDS011;17348;50.948;10.696;2023-02-19T13:20:37;3.30;;;1.93;;
30571;SDS011;17348;50.948;10.696;2023-02-19T13:23:42;2.50;;;1.00;;
30571;SDS011;17348;50.948;10.696;2023-02-19T13:27:02;2.27;;;1.40;;
30571;SDS011;17348;50.948;10.696;2023-02-19T13:30:22;3.60;;;1.00;;
30571;SDS011;17348;50.948;10.696;2023-02-19T13:33:41;3.50;;;1.05;;
30571;SDS011;17348;50.948;10.696;2023-02-19T13:36:48;0.50;;;0.50;;
30571;SDS011;17348;50.948;10.696;2023-02-19T13:39:52;1.92;;;0.90;;
30571;SDS011;17348;50.948;10.696;2023-02-19T13:42:56;1.40;;;0.80;;
30571;SDS011;17348;50.948;10.696;2023-02-19T13:46:01;1.67;;;1.00;;
30571;SDS011;17348;50.948;10.696;2023-02-19T13:49:22;2.20;;;0.80;;
30571;SDS011;17348;50.948;10.696;2023-02-19T13:52:41;0.45;;;0.45;;
30571;SDS011;17348;50.948;10.696;2023-02-19T13:55:46;1.03;;;0.70;;
30571;SDS011;17348;50.948;10.696;2023-02-19T13:58:53;1.15;;;0.45;;
30571;SDS011;17348;50.948;10.696;2023-02-19T14:09:00;1.10;;;0.70;;
30571;SDS011;17348;50.948;10.696;2023-02-19T14:12:04;1.33;;;0.60;;
30571;SDS011;17348;50.948;10.696;2023-02-19T14:15:39;1.00;;;0.50;;
30571;SDS011;17348;50.948;10.696;2023-02-19T14:18:44;2.00;;;0.77;;
30571;SDS011;17348;50.948;10.696;2023-02-19T14:21:47;0.87;;;0.67;;
30571;SDS011;17348;50.948;10.696;2023-02-19T14:24:49;1.80;;;0.80;;
30571;SDS011;17348;50.948;10.696;2023-02-19T14:27:58;1.07;;;0.60;;
30571;SDS011;17348;50.948;10.696;2023-02-19T14:34:25;2.73;;;1.40;;
30571;SDS011;17348;50.948;10.696;2023-02-19T14:37:27;1.02;;;0.80;;
30571;SDS011;17348;50.948;10.696;2023-02-19T14:40:31;4.07;;;1.13;;
30571;SDS011;17348;50.948;10.696;2023-02-19T14:43:38;1.73;;;0.87;;
30571;SDS011;17348;50.948;10.696;2023-02-19T14:46:43;2.70;;;0.70;;
30571;SDS011;17348;50.948;10.696;2023-02-19T14:49:51;10.20;;;2.77;;
30571;SDS011;17348;50.948;10.696;2023-02-19T14:52:56;2.47;;;1.00;;
30571;SDS011;17348;50.948;10.696;2023-02-19T14:56:01;3.50;;;1.60;;
30571;SDS011;17348;50.948;10.696;2023-02-19T14:59:07;2.67;;;1.20;;
30571;SDS011;17348;50.948;10.696;2023-02-19T15:02:21;1.83;;;0.80;;
30571;SDS011;17348;50.948;10.696;2023-02-19T15:05:25;1.43;;;0.60;;
30571;SDS011;17348;50.948;10.696;2023-02-19T15:08:36;0.55;;;0.50;;
30571;SDS011;17348;50.948;10.696;2023-02-19T15:11:40;1.30;;;0.75;;
30571;SDS011;17348;50.948;10.696;2023-02-19T15:14:45;5.53;;;0.70;;
30571;SDS011;17348;50.948;10.696;2023-02-19T15:17:50;1.40;;;0.90;;
30571;SDS011;17348;50.948;10.696;2023-02-19T15:20:57;1.13;;;0.87;;
30571;SDS011;17348;50.948;10.696;2023-02-19T15:24:02;1.63;;;0.70;;
30571;SDS011;17348;50.948;10.696;2023-02-19T15:27:10;5.50;;;0.90;;
30571;SDS011;17348;50.948;10.696;2023-02-19T15:30:20;1.08;;;0.65;;
30571;SDS011;17348;50.948;10.696;2023-02-19T15:33:24;0.63;;;0.40;;
30571;SDS011;17348;50.948;10.696;2023-02-19T15:36:28;0.60;;;0.50;;
30571;SDS011;17348;50.948;10.696;2023-02-19T15:39:36;0.67;;;0.50;;
30571;SDS011;17348;50.948;10.696;2023-02-19T15:42:42;0.80;;;0.60;;
30571;SDS011;17348;50.948;10.696;2023-02-19T15:45:47;1.20;;;0.63;;
30571;SDS011;17348;50.948;10.696;2023-02-19T15:48:53;1.00;;;0.53;;
30571;SDS011;17348;50.948;10.696;2023-02-19T15:52:01;0.47;;;0.40;;
30571;SDS011;17348;50.948;10.696;2023-02-19T15:55:10;1.97;;;0.73;;
30571;SDS011;17348;50.948;10.696;2023-02-19T15:58:30;1.50;;;0.70;;
30571;SDS011;17348;50.948;10.696;2023-02-19T16:01:37;3.07;;;0.90;;
30571;SDS011;17348;50.948;10.696;2023-02-19T16:04:40;1.77;;;0.83;;
30571;SDS011;17348;50.948;10.696;2023-02-19T16:07:44;2.97;;;0.82;;
30571;SDS011;17348;50.948;10.696;2023-02-19T16:10:51;1.60;;;1.10;;
30571;SDS011;17348;50.948;10.696;2023-02-19T16:14:14;2.43;;;1.47;;
30571;SDS011;17348;50.948;10.696;2023-02-19T16:17:20;2.53;;;1.17;;
30571;SDS011;17348;50.948;10.696;2023-02-19T16:20:28;2.27;;;1.20;;
30571;SDS011;17348;50.948;10.696;2023-02-19T16:23:32;3.37;;;1.47;;
30571;SDS011;17348;50.948;10.696;2023-02-19T16:26:38;7.90;;;3.63;;
30571;SDS011;17348;50.948;10.696;2023-02-19T16:29:40;4.60;;;2.27;;
30571;SDS011;17348;50.948;10.696;2023-02-19T16:36:38;3.57;;;1.60;;
30571;SDS011;17348;50.948;10.696;2023-02-19T16:39:43;3.20;;;1.37;;
30571;SDS011;17348;50.948;10.696;2023-02-19T16:46:25;20.75;;;7.93;;
30571;SDS011;17348;50.948;10.696;2023-02-19T16:49:28;44.43;;;16.23;;
30571;SDS011;17348;50.948;10.696;2023-02-19T16:52:32;74.07;;;31.53;;
30571;SDS011;17348;50.948;10.696;2023-02-19T16:55:38;32.27;;;15.63;;
30571;SDS011;17348;50.948;10.696;2023-02-19T16:58:40;16.23;;;7.70;;
30571;SDS011;17348;50.948;10.696;2023-02-19T17:01:43;11.73;;;5.97;;
30571;SDS011;17348;50.948;10.696;2023-02-19T17:04:45;3.90;;;2.37;;
30571;SDS011;17348;50.948;10.696;2023-02-19T17:07:51;3.90;;;2.47;;
30571;SDS011;17348;50.948;10.696;2023-02-19T17:10:53;4.20;;;2.37;;
30571;SDS011;17348;50.948;10.696;2023-02-19T17:13:56;4.47;;;1.90;;
30571;SDS011;17348;50.948;10.696;2023-02-19T17:16:58;5.73;;;2.33;;
30571;SDS011;17348;50.948;10.696;2023-02-19T17:20:00;2.20;;;1.17;;
30571;SDS011;17348;50.948;10.696;2023-02-19T17:23:04;4.63;;;2.33;;
30571;SDS011;17348;50.948;10.696;2023-02-19T17:26:07;1.77;;;1.23;;
30571;SDS011;17348;50.948;10.696;2023-02-19T17:29:14;2.80;;;1.27;;
30571;SDS011;17348;50.948;10.696;2023-02-19T17:32:17;9.07;;;2.63;;
30571;SDS011;17348;50.948;10.696;2023-02-19T17:35:20;2.90;;;1.63;;
30571;SDS011;17348;50.948;10.696;2023-02-19T17:38:25;4.07;;;1.73;;
30571;SDS011;17348;50.948;10.696;2023-02-19T17:41:28;3.77;;;1.80;;
30571;SDS011;17348;50.948;10.696;2023-02-19T17:44:30;5.03;;;2.67;;
30571;SDS011;17348;50.948;10.696;2023-02-19T17:47:33;4.77;;;2.00;;
30571;SDS011;17348;50.948;10.696;2023-02-19T17:50:35;3.50;;;2.00;;
30571;SDS011;17348;50.948;10.696;2023-02-19T17:53:39;6.50;;;2.47;;
30571;SDS011;17348;50.948;10.696;2023-02-19T17:56:41;3.83;;;2.03;;
30571;SDS011;17348;50.948;10.696;2023-02-19T17:59:45;3.10;;;1.70;;
30571;SDS011;17348;50.948;10.696;2023-02-19T18:02:48;2.53;;;1.40;;
30571;SDS011;17348;50.948;10.696;2023-02-19T18:05:50;2.73;;;1.67;;
30571;SDS011;17348;50.948;10.696;2023-02-19T18:08:57;3.50;;;1.53;;
30571;SDS011;17348;50.948;10.696;2023-02-19T18:11:59;2.40;;;1.30;;
30571;SDS011;17348;50.948;10.696;2023-02-19T18:15:01;6.17;;;2.27;;
30571;SDS011;17348;50.948;10.696;2023-02-19T18:18:04;7.60;;;3.37;;
30571;SDS011;17348;50.948;10.696;2023-02-19T18:21:07;8.10;;;3.40;;
30571;SDS011;17348;50.948;10.696;2023-02-19T18:24:12;34.23;;;11.80;;
30571;SDS011;17348;50.948;10.696;2023-02-19T18:27:16;11.43;;;4.80;;
30571;SDS011;17348;50.948;10.696;2023-02-19T18:30:20;20.00;;;7.40;;
30571;SDS011;17348;50.948;10.696;2023-02-19T18:33:23;77.10;;;25.77;;
30571;SDS011;17348;50.948;10.696;2023-02-19T18:36:25;42.50;;;14.93;;
30571;SDS011;17348;50.948;10.696;2023-02-19T18:39:29;16.20;;;7.37;;
30571;SDS011;17348;50.948;10.696;2023-02-19T18:42:31;18.93;;;8.73;;
30571;SDS011;17348;50.948;10.696;2023-02-19T18:45:34;16.43;;;7.50;;
30571;SDS011;17348;50.948;10.696;2023-02-19T18:48:37;18.03;;;8.43;;
30571;SDS011;17348;50.948;10.696;2023-02-19T18:51:39;21.60;;;11.00;;